Terminal Aerodrome Forecast
Issued by NWS

Home | Current Version | Previous Version | Text Only | Print | Product List | Glossary On
Versions: 1 2 3 4 5 6 7 8 9 10 11 12 13 14 15 16 17 18 19 20 21 22 23 24 25 26 27
000
FTUS43 KGRB 311134
TAFRHI
TAF
KRHI 311134Z 3112/0112 26004KT P6SM BKN100
     FM311300 29010G16KT P6SM SCT050
     FM311800 29012G19KT P6SM BKN050
      TEMPO 3118/3122 SCT050
     FM312300 28008KT P6SM FEW050
     FM010100 28003KT P6SM SKC=

USA.gov is the U.S. government's official web portal to all federal, state and local government web resources and services.